Harare, Zimbabwe
Current Conditions -  °F | °C
As of 1:00 PM on Saturday 20 Dec 2014 (Local Time) from FVHA Reporting Station
Broken Clouds Broken Clouds  
Wind Chill: 26°   Ceiling: 3000
Heat Index: 27°   Visibility: 6mi
Dew Point: 17°   Wind: 3mph
Humidity: 57%   Direction: NA
Pressure: 30.12"   Gusts: NA
Location:  17.82°S, 31.05°E
Report Text: FVHA 201100Z VRB03KT 9999 FEW025CB BKN030 BKN080 26/17 Q1020 NOSIG
Loading
Personal Weather Stations






























Interactive Weather Map New forecast layout! Learn more

10-Day Weather Forecast

Advertisements
Track Severe Weather on mobile